sensor_id;sensor_type;location;lat;lon;timestamp;pressure;altitude;pressure_sealevel;temperature;humidity
44359;BME280;30077;52.474;13.326;2022-09-09T00:03:18;100400.06;;;14.25;100.00
44359;BME280;30077;52.474;13.326;2022-09-09T00:08:22;100401.97;;;14.23;100.00
44359;BME280;30077;52.474;13.326;2022-09-09T00:13:38;100406.59;;;14.21;100.00
44359;BME280;30077;52.474;13.326;2022-09-09T00:24:09;100394.22;;;14.18;100.00
44359;BME280;30077;52.474;13.326;2022-09-09T00:34:23;100388.41;;;14.12;100.00
44359;BME280;30077;52.474;13.326;2022-09-09T00:39:43;100383.22;;;14.09;100.00
44359;BME280;30077;52.474;13.326;2022-09-09T00:44:51;100385.34;;;14.04;100.00
44359;BME280;30077;52.474;13.326;2022-09-09T01:10:47;100396.09;;;13.89;100.00
44359;BME280;30077;52.474;13.326;2022-09-09T01:15:50;100399.81;;;13.87;100.00
44359;BME280;30077;52.474;13.326;2022-09-09T01:26:19;100401.25;;;13.78;100.00
44359;BME280;30077;52.474;13.326;2022-09-09T01:31:27;100396.28;;;13.72;100.00
44359;BME280;30077;52.474;13.326;2022-09-09T01:41:32;100395.59;;;13.68;100.00
44359;BME280;30077;52.474;13.326;2022-09-09T01:46:32;100396.69;;;13.66;100.00
44359;BME280;30077;52.474;13.326;2022-09-09T01:51:33;100388.91;;;13.61;100.00
44359;BME280;30077;52.474;13.326;2022-09-09T02:02:13;100387.38;;;13.57;100.00
44359;BME280;30077;52.474;13.326;2022-09-09T02:07:31;100393.81;;;13.55;100.00
44359;BME280;30077;52.474;13.326;2022-09-09T02:12:41;100402.78;;;13.54;100.00
44359;BME280;30077;52.474;13.326;2022-09-09T02:17:46;100405.47;;;13.54;100.00
44359;BME280;30077;52.474;13.326;2022-09-09T02:22:49;100404.72;;;13.52;100.00
44359;BME280;30077;52.474;13.326;2022-09-09T02:27:50;100398.69;;;13.48;100.00
44359;BME280;30077;52.474;13.326;2022-09-09T02:32:52;100401.44;;;13.46;100.00
44359;BME280;30077;52.474;13.326;2022-09-09T02:38:00;100397.16;;;13.44;100.00
44359;BME280;30077;52.474;13.326;2022-09-09T02:43:02;100399.03;;;13.42;100.00
44359;BME280;30077;52.474;13.326;2022-09-09T02:48:14;100394.72;;;13.39;100.00
44359;BME280;30077;52.474;13.326;2022-09-09T02:53:26;100399.34;;;13.37;100.00
44359;BME280;30077;52.474;13.326;2022-09-09T02:58:31;100386.13;;;13.34;100.00
44359;BME280;30077;52.474;13.326;2022-09-09T03:03:32;100391.47;;;13.34;100.00
44359;BME280;30077;52.474;13.326;2022-09-09T03:08:32;100393.19;;;13.35;100.00
44359;BME280;30077;52.474;13.326;2022-09-09T03:13:33;100407.56;;;13.34;100.00
44359;BME280;30077;52.474;13.326;2022-09-09T03:18:33;100412.91;;;13.34;100.00
44359;BME280;30077;52.474;13.326;2022-09-09T03:23:34;100420.16;;;13.32;100.00
44359;BME280;30077;52.474;13.326;2022-09-09T03:28:34;100416.56;;;13.33;100.00
44359;BME280;30077;52.474;13.326;2022-09-09T03:33:36;100418.44;;;13.31;100.00
44359;BME280;30077;52.474;13.326;2022-09-09T03:38:37;100414.81;;;13.32;100.00
44359;BME280;30077;52.474;13.326;2022-09-09T03:43:37;100420.28;;;13.31;100.00
44359;BME280;30077;52.474;13.326;2022-09-09T03:48:37;100429.34;;;13.28;100.00
44359;BME280;30077;52.474;13.326;2022-09-09T03:53:40;100425.91;;;13.26;100.00
44359;BME280;30077;52.474;13.326;2022-09-09T03:58:40;100423.31;;;13.24;100.00
44359;BME280;30077;52.474;13.326;2022-09-09T04:03:40;100412.84;;;13.20;100.00
44359;BME280;30077;52.474;13.326;2022-09-09T04:08:41;100418.56;;;13.14;100.00
44359;BME280;30077;52.474;13.326;2022-09-09T04:13:43;100412.63;;;13.09;100.00
44359;BME280;30077;52.474;13.326;2022-09-09T04:18:44;100411.84;;;13.07;100.00
44359;BME280;30077;52.474;13.326;2022-09-09T04:23:44;100428.97;;;13.04;100.00
44359;BME280;30077;52.474;13.326;2022-09-09T04:28:45;100434.22;;;13.06;100.00
44359;BME280;30077;52.474;13.326;2022-09-09T04:33:45;100430.41;;;13.10;100.00
44359;BME280;30077;52.474;13.326;2022-09-09T04:38:46;100423.16;;;13.12;100.00
44359;BME280;30077;52.474;13.326;2022-09-09T04:43:49;100429.19;;;13.15;100.00
44359;BME280;30077;52.474;13.326;2022-09-09T04:48:49;100445.16;;;13.17;100.00
44359;BME280;30077;52.474;13.326;2022-09-09T04:53:50;100443.88;;;13.24;100.00
44359;BME280;30077;52.474;13.326;2022-09-09T04:58:55;100452.53;;;13.29;100.00
44359;BME280;30077;52.474;13.326;2022-09-09T05:03:55;100445.75;;;13.38;100.00
44359;BME280;30077;52.474;13.326;2022-09-09T05:08:57;100453.31;;;13.45;100.00
44359;BME280;30077;52.474;13.326;2022-09-09T05:13:58;100455.34;;;13.56;100.00
44359;BME280;30077;52.474;13.326;2022-09-09T05:18:58;100452.00;;;13.67;100.00
44359;BME280;30077;52.474;13.326;2022-09-09T05:23:59;100449.53;;;13.78;100.00
44359;BME280;30077;52.474;13.326;2022-09-09T05:29:00;100450.69;;;13.88;100.00
44359;BME280;30077;52.474;13.326;2022-09-09T05:34:01;100458.06;;;13.99;100.00
44359;BME280;30077;52.474;13.326;2022-09-09T05:39:01;100457.28;;;14.11;100.00
44359;BME280;30077;52.474;13.326;2022-09-09T05:44:01;100457.75;;;14.18;100.00
44359;BME280;30077;52.474;13.326;2022-09-09T05:49:02;100455.44;;;14.26;100.00
44359;BME280;30077;52.474;13.326;2022-09-09T05:54:02;100470.97;;;14.35;100.00
44359;BME280;30077;52.474;13.326;2022-09-09T05:59:02;100465.41;;;14.38;100.00
44359;BME280;30077;52.474;13.326;2022-09-09T06:04:03;100478.16;;;14.49;100.00
44359;BME280;30077;52.474;13.326;2022-09-09T06:09:05;100476.34;;;14.64;100.00
44359;BME280;30077;52.474;13.326;2022-09-09T06:14:09;100483.25;;;14.81;100.00
44359;BME280;30077;52.474;13.326;2022-09-09T06:19:09;100481.19;;;14.99;100.00
44359;BME280;30077;52.474;13.326;2022-09-09T06:24:12;100483.09;;;15.11;100.00
44359;BME280;30077;52.474;13.326;2022-09-09T06:29:13;100484.16;;;15.21;100.00
44359;BME280;30077;52.474;13.326;2022-09-09T06:34:14;100487.09;;;15.18;100.00
44359;BME280;30077;52.474;13.326;2022-09-09T06:39:15;100493.56;;;15.01;100.00
44359;BME280;30077;52.474;13.326;2022-09-09T06:44:16;100490.34;;;14.96;100.00
44359;BME280;30077;52.474;13.326;2022-09-09T06:49:16;100498.44;;;15.09;100.00
44359;BME280;30077;52.474;13.326;2022-09-09T06:54:16;100494.97;;;15.47;100.00
44359;BME280;30077;52.474;13.326;2022-09-09T06:59:18;100487.75;;;16.00;100.00
44359;BME280;30077;52.474;13.326;2022-09-09T07:04:21;100487.38;;;16.43;100.00
44359;BME280;30077;52.474;13.326;2022-09-09T07:09:22;100493.13;;;16.62;100.00
44359;BME280;30077;52.474;13.326;2022-09-09T07:14:23;100494.56;;;16.92;100.00
44359;BME280;30077;52.474;13.326;2022-09-09T07:19:24;100505.03;;;17.20;100.00
44359;BME280;30077;52.474;13.326;2022-09-09T07:24:24;100501.50;;;17.55;100.00
44359;BME280;30077;52.474;13.326;2022-09-09T07:29:24;100495.22;;;17.90;100.00
44359;BME280;30077;52.474;13.326;2022-09-09T07:34:24;100502.25;;;18.37;99.92
44359;BME280;30077;52.474;13.326;2022-09-09T07:39:25;100511.06;;;18.84;97.63
44359;BME280;30077;52.474;13.326;2022-09-09T07:44:25;100523.81;;;19.37;93.66
44359;BME280;30077;52.474;13.326;2022-09-09T07:49:26;100528.19;;;19.49;91.19
44359;BME280;30077;52.474;13.326;2022-09-09T07:54:27;100522.59;;;19.73;89.77
44359;BME280;30077;52.474;13.326;2022-09-09T07:59:27;100523.38;;;19.85;89.18
44359;BME280;30077;52.474;13.326;2022-09-09T08:04:30;100520.84;;;19.93;88.43
44359;BME280;30077;52.474;13.326;2022-09-09T08:09:30;100532.06;;;19.67;88.92
44359;BME280;30077;52.474;13.326;2022-09-09T08:14:32;100537.69;;;19.11;91.33
44359;BME280;30077;52.474;13.326;2022-09-09T08:19:32;100541.16;;;18.68;93.96
44359;BME280;30077;52.474;13.326;2022-09-09T08:24:36;100535.53;;;18.49;97.00
44359;BME280;30077;52.474;13.326;2022-09-09T08:29:36;100532.31;;;18.55;97.00
44359;BME280;30077;52.474;13.326;2022-09-09T08:34:37;100532.56;;;18.63;95.16
44359;BME280;30077;52.474;13.326;2022-09-09T08:39:38;100535.28;;;18.63;94.39
44359;BME280;30077;52.474;13.326;2022-09-09T08:55:27;100538.44;;;18.91;92.41
44359;BME280;30077;52.474;13.326;2022-09-09T09:00:36;100536.16;;;19.30;91.08
44359;BME280;30077;52.474;13.326;2022-09-09T09:05:47;100549.00;;;19.81;89.12
44359;BME280;30077;52.474;13.326;2022-09-09T09:10:56;100545.38;;;20.43;86.75
44359;BME280;30077;52.474;13.326;2022-09-09T09:21:43;100549.00;;;21.53;79.77
44359;BME280;30077;52.474;13.326;2022-09-09T09:26:44;100541.94;;;22.09;77.08
44359;BME280;30077;52.474;13.326;2022-09-09T09:32:03;100544.69;;;22.46;74.58
44359;BME280;30077;52.474;13.326;2022-09-09T09:37:15;100538.69;;;22.43;73.49
44359;BME280;30077;52.474;13.326;2022-09-09T09:42:19;100547.94;;;22.22;74.66
44359;BME280;30077;52.474;13.326;2022-09-09T09:47:22;100549.97;;;22.01;75.04
44359;BME280;30077;52.474;13.326;2022-09-09T09:52:26;100534.56;;;21.72;75.85
44359;BME280;30077;52.474;13.326;2022-09-09T09:57:29;100535.44;;;21.53;76.61
44359;BME280;30077;52.474;13.326;2022-09-09T10:02:39;100542.81;;;21.32;77.41
44359;BME280;30077;52.474;13.326;2022-09-09T10:07:40;100543.84;;;20.90;80.54
44359;BME280;30077;52.474;13.326;2022-09-09T10:12:54;100539.97;;;20.83;80.22
44359;BME280;30077;52.474;13.326;2022-09-09T10:24:07;100548.28;;;21.51;76.58
44359;BME280;30077;52.474;13.326;2022-09-09T10:29:28;100550.22;;;21.30;75.74
44359;BME280;30077;52.474;13.326;2022-09-09T10:34:48;100555.16;;;20.96;78.06
44359;BME280;30077;52.474;13.326;2022-09-09T10:40:02;100556.75;;;21.08;78.17
44359;BME280;30077;52.474;13.326;2022-09-09T10:45:23;100553.28;;;20.86;78.33
44359;BME280;30077;52.474;13.326;2022-09-09T10:50:53;100540.25;;;20.71;79.24
44359;BME280;30077;52.474;13.326;2022-09-09T10:56:00;100542.19;;;20.99;77.52
44359;BME280;30077;52.474;13.326;2022-09-09T11:01:09;100548.75;;;21.16;77.09
44359;BME280;30077;52.474;13.326;2022-09-09T11:06:19;100538.19;;;21.13;78.55
44359;BME280;30077;52.474;13.326;2022-09-09T11:11:33;100538.00;;;21.35;77.75
44359;BME280;30077;52.474;13.326;2022-09-09T11:16:57;100543.41;;;21.65;75.72
44359;BME280;30077;52.474;13.326;2022-09-09T11:22:02;100546.81;;;21.96;72.95
44359;BME280;30077;52.474;13.326;2022-09-09T11:27:14;100545.53;;;21.90;71.26
44359;BME280;30077;52.474;13.326;2022-09-09T11:32:26;100549.06;;;22.00;71.49
44359;BME280;30077;52.474;13.326;2022-09-09T11:42:48;100542.50;;;22.13;68.63
44359;BME280;30077;52.474;13.326;2022-09-09T11:47:54;100531.28;;;22.35;69.47
44359;BME280;30077;52.474;13.326;2022-09-09T12:08:47;100515.44;;;22.58;67.61
44359;BME280;30077;52.474;13.326;2022-09-09T12:13:54;100502.63;;;22.50;68.03
44359;BME280;30077;52.474;13.326;2022-09-09T12:19:03;100498.47;;;22.46;66.80
44359;BME280;30077;52.474;13.326;2022-09-09T12:24:11;100497.34;;;22.49;67.83
44359;BME280;30077;52.474;13.326;2022-09-09T12:34:40;100486.59;;;22.47;64.90
44359;BME280;30077;52.474;13.326;2022-09-09T12:39:49;100485.38;;;22.32;64.57
44359;BME280;30077;52.474;13.326;2022-09-09T12:44:53;100485.88;;;22.18;64.90
44359;BME280;30077;52.474;13.326;2022-09-09T12:49:54;100486.88;;;22.17;64.16
44359;BME280;30077;52.474;13.326;2022-09-09T12:54:58;100482.97;;;22.29;65.26
44359;BME280;30077;52.474;13.326;2022-09-09T13:00:20;100500.66;;;22.43;64.90
44359;BME280;30077;52.474;13.326;2022-09-09T13:10:26;100504.28;;;22.61;64.62
44359;BME280;30077;52.474;13.326;2022-09-09T13:15:29;100508.56;;;22.64;64.59
44359;BME280;30077;52.474;13.326;2022-09-09T13:20:30;100499.13;;;22.58;64.28
44359;BME280;30077;52.474;13.326;2022-09-09T13:25:31;100490.13;;;22.57;64.43
44359;BME280;30077;52.474;13.326;2022-09-09T13:30:33;100478.00;;;22.52;64.08
44359;BME280;30077;52.474;13.326;2022-09-09T13:35:49;100474.47;;;22.69;63.79
44359;BME280;30077;52.474;13.326;2022-09-09T13:40:53;100478.22;;;23.14;62.93
44359;BME280;30077;52.474;13.326;2022-09-09T13:46:01;100468.91;;;23.60;61.30
44359;BME280;30077;52.474;13.326;2022-09-09T13:51:03;100458.72;;;24.06;59.43
44359;BME280;30077;52.474;13.326;2022-09-09T13:56:07;100456.34;;;24.37;58.80
44359;BME280;30077;52.474;13.326;2022-09-09T14:01:08;100453.75;;;24.36;58.66
44359;BME280;30077;52.474;13.326;2022-09-09T14:06:11;100465.63;;;24.53;58.29
44359;BME280;30077;52.474;13.326;2022-09-09T14:11:12;100471.81;;;24.63;56.85
44359;BME280;30077;52.474;13.326;2022-09-09T14:16:13;100459.53;;;24.59;57.22
44359;BME280;30077;52.474;13.326;2022-09-09T14:21:13;100452.91;;;24.35;56.55
44359;BME280;30077;52.474;13.326;2022-09-09T14:26:15;100466.06;;;24.14;57.10
44359;BME280;30077;52.474;13.326;2022-09-09T14:31:15;100456.97;;;24.31;55.33
44359;BME280;30077;52.474;13.326;2022-09-09T14:36:18;100455.19;;;24.14;58.01
44359;BME280;30077;52.474;13.326;2022-09-09T14:41:19;100446.94;;;23.71;58.70
44359;BME280;30077;52.474;13.326;2022-09-09T14:46:20;100461.09;;;23.39;60.37
44359;BME280;30077;52.474;13.326;2022-09-09T14:51:22;100470.75;;;23.16;62.10
44359;BME280;30077;52.474;13.326;2022-09-09T14:56:25;100468.31;;;22.95;62.76
44359;BME280;30077;52.474;13.326;2022-09-09T15:01:27;100468.66;;;22.82;64.04
44359;BME280;30077;52.474;13.326;2022-09-09T15:06:31;100466.41;;;22.77;63.79
44359;BME280;30077;52.474;13.326;2022-09-09T15:11:35;100466.34;;;22.87;62.98
44359;BME280;30077;52.474;13.326;2022-09-09T15:16:39;100458.47;;;23.12;62.82
44359;BME280;30077;52.474;13.326;2022-09-09T15:21:39;100443.63;;;23.06;61.99
44359;BME280;30077;52.474;13.326;2022-09-09T15:26:40;100443.94;;;22.75;62.26
44359;BME280;30077;52.474;13.326;2022-09-09T15:31:40;100443.72;;;22.41;63.07
44359;BME280;30077;52.474;13.326;2022-09-09T15:36:42;100434.41;;;22.06;63.37
44359;BME280;30077;52.474;13.326;2022-09-09T15:41:46;100426.06;;;21.71;63.98
44359;BME280;30077;52.474;13.326;2022-09-09T15:46:50;100425.72;;;21.46;66.04
44359;BME280;30077;52.474;13.326;2022-09-09T15:51:53;100409.13;;;21.30;66.69
44359;BME280;30077;52.474;13.326;2022-09-09T15:56:57;100402.56;;;21.23;67.80
44359;BME280;30077;52.474;13.326;2022-09-09T16:01:58;100419.72;;;21.13;68.50
44359;BME280;30077;52.474;13.326;2022-09-09T16:07:02;100430.81;;;21.20;68.53
44359;BME280;30077;52.474;13.326;2022-09-09T16:12:04;100438.97;;;21.30;68.88
44359;BME280;30077;52.474;13.326;2022-09-09T16:17:09;100452.25;;;21.33;68.13
44359;BME280;30077;52.474;13.326;2022-09-09T16:22:09;100469.72;;;21.40;66.80
44359;BME280;30077;52.474;13.326;2022-09-09T16:27:10;100476.53;;;21.25;68.10
44359;BME280;30077;52.474;13.326;2022-09-09T16:32:11;100479.09;;;21.07;68.20
44359;BME280;30077;52.474;13.326;2022-09-09T16:37:11;100476.50;;;20.96;68.61
44359;BME280;30077;52.474;13.326;2022-09-09T16:42:12;100467.94;;;20.90;69.13
44359;BME280;30077;52.474;13.326;2022-09-09T16:47:13;100468.78;;;20.81;69.75
44359;BME280;30077;52.474;13.326;2022-09-09T16:52:13;100466.31;;;20.68;69.50
44359;BME280;30077;52.474;13.326;2022-09-09T16:57:14;100465.56;;;20.57;71.17
44359;BME280;30077;52.474;13.326;2022-09-09T17:02:20;100460.66;;;20.41;72.65
44359;BME280;30077;52.474;13.326;2022-09-09T17:07:21;100450.88;;;20.19;74.37
44359;BME280;30077;52.474;13.326;2022-09-09T17:12:28;100452.19;;;19.94;75.43
44359;BME280;30077;52.474;13.326;2022-09-09T17:17:29;100462.63;;;19.78;75.60
44359;BME280;30077;52.474;13.326;2022-09-09T17:22:29;100469.84;;;19.56;77.07
44359;BME280;30077;52.474;13.326;2022-09-09T17:27:30;100441.81;;;19.36;78.82
44359;BME280;30077;52.474;13.326;2022-09-09T17:32:33;100440.53;;;19.19;80.46
44359;BME280;30077;52.474;13.326;2022-09-09T17:37:35;100435.03;;;19.10;82.82
44359;BME280;30077;52.474;13.326;2022-09-09T17:42:35;100451.19;;;19.00;83.05
44359;BME280;30077;52.474;13.326;2022-09-09T17:47:36;100448.78;;;18.86;84.01
44359;BME280;30077;52.474;13.326;2022-09-09T17:52:36;100456.31;;;18.71;83.93
44359;BME280;30077;52.474;13.326;2022-09-09T17:57:37;100461.47;;;18.51;84.19
44359;BME280;30077;52.474;13.326;2022-09-09T18:02:37;100456.47;;;18.36;84.02
44359;BME280;30077;52.474;13.326;2022-09-09T18:07:38;100455.00;;;18.20;82.44
44359;BME280;30077;52.474;13.326;2022-09-09T18:12:38;100458.66;;;18.08;82.42
44359;BME280;30077;52.474;13.326;2022-09-09T18:17:39;100477.56;;;17.97;81.99
44359;BME280;30077;52.474;13.326;2022-09-09T18:22:39;100487.63;;;17.84;82.31
44359;BME280;30077;52.474;13.326;2022-09-09T18:27:39;100501.28;;;17.69;83.23
44359;BME280;30077;52.474;13.326;2022-09-09T18:32:39;100523.78;;;17.57;84.44
44359;BME280;30077;52.474;13.326;2022-09-09T18:37:40;100524.06;;;17.54;86.01
44359;BME280;30077;52.474;13.326;2022-09-09T18:42:40;100529.19;;;17.57;87.12
44359;BME280;30077;52.474;13.326;2022-09-09T18:47:41;100535.06;;;17.51;89.26
44359;BME280;30077;52.474;13.326;2022-09-09T18:52:41;100537.72;;;17.40;91.10
44359;BME280;30077;52.474;13.326;2022-09-09T18:57:42;100540.25;;;17.30;93.02
44359;BME280;30077;52.474;13.326;2022-09-09T19:02:42;100546.00;;;17.25;94.30
44359;BME280;30077;52.474;13.326;2022-09-09T19:07:42;100557.22;;;17.19;94.59
44359;BME280;30077;52.474;13.326;2022-09-09T19:12:43;100548.38;;;17.17;93.90
44359;BME280;30077;52.474;13.326;2022-09-09T19:17:43;100548.63;;;17.14;93.19
44359;BME280;30077;52.474;13.326;2022-09-09T19:22:43;100547.38;;;17.07;93.22
44359;BME280;30077;52.474;13.326;2022-09-09T19:27:45;100553.63;;;16.95;94.49
44359;BME280;30077;52.474;13.326;2022-09-09T19:32:45;100557.97;;;16.84;94.93
44359;BME280;30077;52.474;13.326;2022-09-09T19:37:46;100553.16;;;16.77;95.32
44359;BME280;30077;52.474;13.326;2022-09-09T19:42:46;100555.63;;;16.67;95.80
44359;BME280;30077;52.474;13.326;2022-09-09T19:47:47;100555.09;;;16.62;95.23
44359;BME280;30077;52.474;13.326;2022-09-09T19:52:48;100557.78;;;16.62;93.85
44359;BME280;30077;52.474;13.326;2022-09-09T19:57:48;100558.97;;;16.58;92.84
44359;BME280;30077;52.474;13.326;2022-09-09T20:02:48;100563.84;;;16.53;92.57
44359;BME280;30077;52.474;13.326;2022-09-09T20:07:51;100565.78;;;16.51;92.69
44359;BME280;30077;52.474;13.326;2022-09-09T20:12:51;100569.78;;;16.45;92.90
44359;BME280;30077;52.474;13.326;2022-09-09T20:17:52;100559.09;;;16.44;92.47
44359;BME280;30077;52.474;13.326;2022-09-09T20:22:53;100564.81;;;16.39;92.03
44359;BME280;30077;52.474;13.326;2022-09-09T20:27:54;100574.19;;;16.33;93.21
44359;BME280;30077;52.474;13.326;2022-09-09T20:32:54;100562.75;;;16.30;93.01
44359;BME280;30077;52.474;13.326;2022-09-09T20:37:54;100570.44;;;16.23;93.80
44359;BME280;30077;52.474;13.326;2022-09-09T20:42:54;100556.63;;;16.15;93.94
44359;BME280;30077;52.474;13.326;2022-09-09T20:47:55;100545.56;;;16.07;94.78
44359;BME280;30077;52.474;13.326;2022-09-09T20:52:56;100535.19;;;16.01;95.60
44359;BME280;30077;52.474;13.326;2022-09-09T20:57:57;100531.97;;;15.96;96.47
44359;BME280;30077;52.474;13.326;2022-09-09T21:02:59;100512.84;;;15.87;97.50
44359;BME280;30077;52.474;13.326;2022-09-09T21:08:01;100509.59;;;15.82;97.64
44359;BME280;30077;52.474;13.326;2022-09-09T21:13:02;100516.34;;;15.75;98.29
44359;BME280;30077;52.474;13.326;2022-09-09T21:18:02;100513.88;;;15.72;99.07
44359;BME280;30077;52.474;13.326;2022-09-09T21:23:03;100521.41;;;15.67;99.33
44359;BME280;30077;52.474;13.326;2022-09-09T21:28:04;100520.94;;;15.60;100.00
44359;BME280;30077;52.474;13.326;2022-09-09T21:33:05;100525.66;;;15.57;100.00
44359;BME280;30077;52.474;13.326;2022-09-09T21:38:20;100532.31;;;15.51;100.00
44359;BME280;30077;52.474;13.326;2022-09-09T21:43:20;100533.38;;;15.49;100.00
44359;BME280;30077;52.474;13.326;2022-09-09T21:48:22;100530.91;;;15.46;100.00
44359;BME280;30077;52.474;13.326;2022-09-09T21:53:25;100535.53;;;15.44;100.00
44359;BME280;30077;52.474;13.326;2022-09-09T21:58:25;100536.28;;;15.46;100.00
44359;BME280;30077;52.474;13.326;2022-09-09T22:03:25;100544.75;;;15.39;100.00
44359;BME280;30077;52.474;13.326;2022-09-09T22:08:28;100545.19;;;15.33;100.00
44359;BME280;30077;52.474;13.326;2022-09-09T22:13:28;100544.59;;;15.28;100.00
44359;BME280;30077;52.474;13.326;2022-09-09T22:18:29;100542.16;;;15.25;100.00
44359;BME280;30077;52.474;13.326;2022-09-09T22:23:31;100547.91;;;15.19;100.00
44359;BME280;30077;52.474;13.326;2022-09-09T22:28:32;100549.16;;;15.13;100.00
44359;BME280;30077;52.474;13.326;2022-09-09T22:33:32;100545.81;;;15.10;100.00
44359;BME280;30077;52.474;13.326;2022-09-09T22:38:33;100550.66;;;15.05;100.00
44359;BME280;30077;52.474;13.326;2022-09-09T22:43:35;100546.44;;;15.01;100.00
44359;BME280;30077;52.474;13.326;2022-09-09T22:48:36;100553.06;;;14.95;100.00
44359;BME280;30077;52.474;13.326;2022-09-09T22:53:41;100547.81;;;14.93;100.00
44359;BME280;30077;52.474;13.326;2022-09-09T22:58:44;100542.44;;;14.93;100.00
44359;BME280;30077;52.474;13.326;2022-09-09T23:03:45;100539.16;;;14.88;100.00
44359;BME280;30077;52.474;13.326;2022-09-09T23:08:50;100540.31;;;14.84;100.00
44359;BME280;30077;52.474;13.326;2022-09-09T23:13:52;100546.88;;;14.80;100.00
44359;BME280;30077;52.474;13.326;2022-09-09T23:18:53;100547.25;;;14.74;100.00
44359;BME280;30077;52.474;13.326;2022-09-09T23:23:57;100538.44;;;14.72;100.00
44359;BME280;30077;52.474;13.326;2022-09-09T23:28:59;100537.59;;;14.72;100.00
44359;BME280;30077;52.474;13.326;2022-09-09T23:34:00;100529.63;;;14.70;100.00
44359;BME280;30077;52.474;13.326;2022-09-09T23:39:03;100530.59;;;14.69;100.00
44359;BME280;30077;52.474;13.326;2022-09-09T23:44:04;100527.16;;;14.67;100.00
44359;BME280;30077;52.474;13.326;2022-09-09T23:49:06;100521.00;;;14.65;100.00
44359;BME280;30077;52.474;13.326;2022-09-09T23:54:07;100524.75;;;14.62;100.00
44359;BME280;30077;52.474;13.326;2022-09-09T23:59:09;100511.63;;;14.58;100.00
